createdAt,value
2022-11-17T00:01:22.072Z,18.88
2022-11-17T00:03:50.687Z,18.94
2022-11-17T00:06:20.406Z,18.87
2022-11-17T00:08:48.985Z,18.52
2022-11-17T00:11:16.214Z,18.68
2022-11-17T00:14:01.570Z,18.62
2022-11-17T00:16:28.517Z,18.65
2022-11-17T00:19:13.709Z,18.64
2022-11-17T00:21:40.662Z,18.69
2022-11-17T00:24:08.074Z,18.88
2022-11-17T00:26:59.599Z,18.63
2022-11-17T00:29:27.208Z,18.61
2022-11-17T00:32:13.184Z,18.60
2022-11-17T00:34:40.240Z,18.43
2022-11-17T00:37:08.247Z,18.33
2022-11-17T00:39:35.350Z,18.18
2022-11-17T00:42:02.519Z,18.47
2022-11-17T00:44:30.510Z,18.00
2022-11-17T00:46:57.533Z,17.64
2022-11-17T00:49:27.018Z,18.08
2022-11-17T00:51:55.506Z,18.12
2022-11-17T00:54:22.939Z,17.61
2022-11-17T00:56:50.250Z,18.15
2022-11-17T00:59:17.391Z,17.89
2022-11-17T01:01:45.242Z,17.83
2022-11-17T01:04:14.581Z,18.10
2022-11-17T01:06:48.198Z,17.95
2022-11-17T01:09:24.073Z,17.77
2022-11-17T01:11:53.031Z,17.97
2022-11-17T01:14:25.294Z,18.31
2022-11-17T01:16:53.072Z,18.07
2022-11-17T01:19:20.731Z,17.70
2022-11-17T01:21:48.031Z,18.09
2022-11-17T01:24:16.632Z,18.50
2022-11-17T01:26:45.085Z,18.01
2022-11-17T01:29:17.008Z,17.78
2022-11-17T01:31:45.071Z,18.21
2022-11-17T01:34:12.974Z,17.64
2022-11-17T01:37:00.984Z,17.71
2022-11-17T01:39:30.289Z,17.95
2022-11-17T01:41:58.379Z,17.79
2022-11-17T01:44:50.168Z,18.15
2022-11-17T01:47:22.940Z,18.19
2022-11-17T01:50:17.870Z,18.16
2022-11-17T01:52:46.300Z,17.94
2022-11-17T01:55:13.488Z,17.72
2022-11-17T01:57:56.726Z,18.19
2022-11-17T02:00:24.056Z,18.00
2022-11-17T02:02:51.828Z,18.09
2022-11-17T02:06:03.251Z,18.36
2022-11-17T02:08:32.824Z,18.13
2022-11-17T02:11:03.194Z,18.16
2022-11-17T02:13:32.637Z,18.11
2022-11-17T02:15:59.708Z,17.75
2022-11-17T02:18:26.795Z,18.31
2022-11-17T02:21:14.181Z,18.49
2022-11-17T02:23:49.766Z,18.37
2022-11-17T02:26:58.942Z,18.52
2022-11-17T02:30:04.618Z,18.49
2022-11-17T02:32:57.725Z,18.48
2022-11-17T02:35:26.573Z,17.57
2022-11-17T02:38:43.072Z,18.55
2022-11-17T02:41:36.578Z,18.53
2022-11-17T02:44:33.632Z,18.57
2022-11-17T02:47:22.367Z,18.53
2022-11-17T02:50:02.216Z,18.66
2022-11-17T02:52:31.153Z,18.22
2022-11-17T02:55:10.100Z,18.91
2022-11-17T02:57:41.602Z,18.60
2022-11-17T03:00:18.276Z,18.35
2022-11-17T03:03:15.035Z,18.71
2022-11-17T03:06:11.356Z,18.14
2022-11-17T03:08:53.193Z,18.48
2022-11-17T03:11:29.366Z,18.56
2022-11-17T03:14:33.439Z,18.13
2022-11-17T03:17:17.051Z,17.92
2022-11-17T03:20:03.905Z,17.81
2022-11-17T03:22:50.179Z,17.23
2022-11-17T03:25:21.347Z,17.31
2022-11-17T03:27:55.007Z,17.81
2022-11-17T03:30:24.422Z,17.68
2022-11-17T03:32:58.733Z,17.60
2022-11-17T03:35:30.026Z,18.18
2022-11-17T03:38:10.847Z,18.02
2022-11-17T03:40:41.336Z,18.21
2022-11-17T03:43:11.401Z,18.16
2022-11-17T03:45:45.023Z,18.15
2022-11-17T03:48:17.565Z,18.13
2022-11-17T03:50:54.859Z,18.09
2022-11-17T03:53:22.431Z,18.21
2022-11-17T03:56:15.070Z,18.36
2022-11-17T03:59:03.813Z,18.23
2022-11-17T04:01:33.542Z,17.67
2022-11-17T04:04:00.604Z,17.80
2022-11-17T04:06:27.553Z,17.83
2022-11-17T04:08:54.531Z,17.94
2022-11-17T04:11:40.120Z,18.02
2022-11-17T04:14:25.381Z,17.88
2022-11-17T04:16:52.277Z,17.57
2022-11-17T04:19:19.208Z,17.63
2022-11-17T04:21:46.142Z,17.22
2022-11-17T04:24:13.129Z,17.53
2022-11-17T04:27:01.429Z,17.62
2022-11-17T04:29:28.699Z,17.58
2022-11-17T04:31:55.693Z,17.58
2022-11-17T04:34:22.740Z,17.83
2022-11-17T04:36:50.819Z,18.11
2022-11-17T04:39:18.000Z,18.08
2022-11-17T04:41:54.263Z,17.91
2022-11-17T04:44:25.023Z,18.24
2022-11-17T04:46:53.150Z,18.08
2022-11-17T04:49:21.968Z,18.08
2022-11-17T04:51:50.455Z,18.16
2022-11-17T04:54:20.914Z,18.43
2022-11-17T04:56:48.319Z,18.24
2022-11-17T04:59:15.276Z,18.10
2022-11-17T05:01:42.303Z,17.99
2022-11-17T05:04:39.345Z,18.36
2022-11-17T05:07:08.151Z,18.48
2022-11-17T05:09:35.804Z,18.37
2022-11-17T05:12:21.430Z,18.54
2022-11-17T05:14:50.230Z,18.54
2022-11-17T05:17:17.689Z,18.53
2022-11-17T05:19:48.747Z,18.94
2022-11-17T05:22:38.305Z,18.85
2022-11-17T05:25:06.353Z,18.97
2022-11-17T05:27:34.023Z,18.86
2022-11-17T05:30:02.667Z,18.87
2022-11-17T05:32:29.601Z,18.66
2022-11-17T05:34:56.535Z,18.50
2022-11-17T05:37:23.450Z,18.62
2022-11-17T05:39:50.373Z,18.45
2022-11-17T05:42:17.286Z,18.39
2022-11-17T05:44:44.242Z,18.55
2022-11-17T05:47:11.192Z,18.86
2022-11-17T05:49:38.094Z,18.81
2022-11-17T05:52:05.168Z,18.64
2022-11-17T05:54:32.084Z,18.71
2022-11-17T05:57:11.827Z,19.53
2022-11-17T05:59:47.227Z,19.32
2022-11-17T06:02:27.797Z,19.25
2022-11-17T06:04:54.720Z,18.72
2022-11-17T06:07:21.711Z,18.71
2022-11-17T06:09:49.718Z,18.96
2022-11-17T06:12:16.851Z,18.79
2022-11-17T06:14:43.810Z,18.60
2022-11-17T06:17:22.779Z,18.98
2022-11-17T06:19:57.313Z,18.94
2022-11-17T06:22:26.735Z,18.58
2022-11-17T06:24:54.370Z,18.06
2022-11-17T06:27:21.744Z,18.23
2022-11-17T06:29:49.785Z,18.33
2022-11-17T06:32:18.853Z,18.22
2022-11-17T06:34:53.676Z,18.24
2022-11-17T06:37:22.285Z,17.64
2022-11-17T06:39:49.243Z,17.81
2022-11-17T06:42:16.142Z,17.52
2022-11-17T06:44:43.650Z,17.40
2022-11-17T06:47:10.615Z,17.76
2022-11-17T06:49:37.580Z,17.67
2022-11-17T06:52:04.520Z,17.74
2022-11-17T06:54:31.413Z,17.82
2022-11-17T06:56:58.704Z,18.22
2022-11-17T06:59:26.147Z,17.76
2022-11-17T07:01:53.105Z,18.23
2022-11-17T07:04:20.096Z,17.37
2022-11-17T07:06:47.100Z,16.62
2022-11-17T07:09:14.156Z,17.71
2022-11-17T07:11:41.199Z,17.94
2022-11-17T07:14:08.159Z,18.17
2022-11-17T07:16:35.152Z,18.69
2022-11-17T07:19:03.717Z,18.62
2022-11-17T07:21:31.243Z,18.49
2022-11-17T07:23:58.259Z,18.20
2022-11-17T07:26:25.253Z,18.18
2022-11-17T07:28:52.283Z,18.09
2022-11-17T07:31:19.283Z,18.12
2022-11-17T07:33:46.431Z,18.35
2022-11-17T07:36:16.901Z,18.21
2022-11-17T07:38:43.837Z,18.19
2022-11-17T07:41:13.829Z,18.53
2022-11-17T07:43:40.948Z,18.57
2022-11-17T07:46:13.742Z,18.84
2022-11-17T07:48:42.558Z,18.58
2022-11-17T07:51:10.057Z,18.65
2022-11-17T07:53:36.979Z,18.75
2022-11-17T07:56:10.225Z,18.97
2022-11-17T07:58:38.264Z,18.95
2022-11-17T08:01:07.851Z,18.98
2022-11-17T08:03:35.029Z,18.68
2022-11-17T08:06:06.833Z,18.89
2022-11-17T08:08:34.752Z,18.98
2022-11-17T08:11:08.189Z,18.45
2022-11-17T08:13:36.028Z,18.43
2022-11-17T08:16:03.225Z,18.56
2022-11-17T08:18:30.560Z,18.57
2022-11-17T08:21:14.434Z,17.72
2022-11-17T08:23:42.468Z,18.44
2022-11-17T08:26:11.462Z,18.57
2022-11-17T08:28:39.170Z,18.17
2022-11-17T08:31:07.805Z,18.66
2022-11-17T08:33:35.078Z,18.74
2022-11-17T08:36:04.414Z,19.07
2022-11-17T08:38:31.482Z,18.09
2022-11-17T08:41:01.931Z,18.22
2022-11-17T08:43:29.720Z,18.77
2022-11-17T08:45:56.862Z,18.53
2022-11-17T08:48:24.806Z,18.58
2022-11-17T08:50:52.320Z,18.47
2022-11-17T08:53:21.736Z,18.51
2022-11-17T08:55:48.951Z,17.70
2022-11-17T08:58:16.627Z,18.62
2022-11-17T09:00:45.456Z,18.81
2022-11-17T09:03:12.536Z,18.91
2022-11-17T09:05:44.772Z,18.41
2022-11-17T09:08:43.925Z,18.27
2022-11-17T09:11:09.760Z,18.38
2022-11-17T09:13:38.040Z,18.43
2022-11-17T09:16:08.615Z,18.04
2022-11-17T09:18:38.393Z,18.61
2022-11-17T09:21:11.737Z,18.97
2022-11-17T09:23:39.425Z,19.07
2022-11-17T09:26:13.409Z,17.85
2022-11-17T09:28:40.739Z,17.91
2022-11-17T09:31:17.651Z,18.01
2022-11-17T09:33:45.885Z,18.37
2022-11-17T09:36:16.114Z,17.86
2022-11-17T09:38:44.454Z,18.13
2022-11-17T09:41:26.242Z,18.15
2022-11-17T09:44:34.460Z,18.32
2022-11-17T09:47:36.845Z,18.65
2022-11-17T09:50:13.152Z,18.62
2022-11-17T09:53:16.079Z,18.51
2022-11-17T09:55:47.293Z,18.77
2022-11-17T09:58:41.478Z,19.03
2022-11-17T10:01:19.284Z,18.52
2022-11-17T10:03:48.462Z,18.36
2022-11-17T10:06:25.391Z,19.15
2022-11-17T10:09:01.177Z,18.82
2022-11-17T10:11:32.137Z,19.32
2022-11-17T10:14:25.941Z,18.46
2022-11-17T10:16:56.353Z,19.42
2022-11-17T10:19:33.259Z,19.70
2022-11-17T10:22:03.254Z,19.82
2022-11-17T10:24:55.448Z,19.58
2022-11-17T10:27:28.751Z,20.26
2022-11-17T10:30:25.203Z,20.59
2022-11-17T10:32:58.221Z,20.34
2022-11-17T10:35:34.797Z,20.04
2022-11-17T10:38:18.081Z,19.71
2022-11-17T10:40:48.043Z,20.32
2022-11-17T10:43:16.836Z,19.57
2022-11-17T10:46:03.338Z,20.04
2022-11-17T10:48:37.211Z,20.05
2022-11-17T10:51:10.437Z,18.54
2022-11-17T10:53:46.169Z,19.23
2022-11-17T10:56:21.554Z,19.31
2022-11-17T10:59:12.633Z,19.48
2022-11-17T11:01:51.248Z,19.73
2022-11-17T11:04:39.519Z,20.06
2022-11-17T11:07:19.414Z,19.68
2022-11-17T11:10:30.293Z,20.30
2022-11-17T11:13:22.010Z,20.56
2022-11-17T11:15:48.953Z,18.49
2022-11-17T11:18:20.660Z,20.04
2022-11-17T11:21:13.436Z,19.13
2022-11-17T11:23:55.588Z,20.04
2022-11-17T11:26:31.781Z,21.04
2022-11-17T11:29:32.665Z,19.29
2022-11-17T11:32:45.307Z,20.77
2022-11-17T11:35:46.514Z,20.74
2022-11-17T11:38:42.227Z,21.05
2022-11-17T11:41:30.373Z,22.42
2022-11-17T11:44:36.941Z,23.15
2022-11-17T11:47:33.204Z,24.67
2022-11-17T11:50:27.153Z,21.81
2022-11-17T11:53:13.412Z,20.88
2022-11-17T11:55:42.115Z,19.78
2022-11-17T11:58:29.589Z,20.47
2022-11-17T12:01:08.398Z,20.44
2022-11-17T12:03:54.221Z,20.19
2022-11-17T12:06:53.811Z,19.00
2022-11-17T12:09:32.990Z,19.38
2022-11-17T12:12:00.975Z,19.48
2022-11-17T12:14:38.756Z,19.46
2022-11-17T12:17:13.772Z,20.99
2022-11-17T12:19:57.291Z,20.56
2022-11-17T12:22:30.349Z,21.63
2022-11-17T12:25:04.764Z,21.60
2022-11-17T12:27:34.855Z,21.16
2022-11-17T12:30:05.914Z,21.99
2022-11-17T12:32:45.047Z,24.71
2022-11-17T12:35:31.744Z,21.35
2022-11-17T12:38:16.941Z,20.91
2022-11-17T12:40:49.977Z,20.39
2022-11-17T12:43:16.865Z,20.10
2022-11-17T12:45:55.839Z,20.70
2022-11-17T12:48:34.813Z,21.43
2022-11-17T12:55:51.109Z,20.47
2022-11-17T12:58:35.876Z,20.31
2022-11-17T13:01:31.156Z,20.52
2022-11-17T13:04:09.978Z,20.21
2022-11-17T13:06:37.313Z,20.84
2022-11-17T13:09:12.171Z,21.74
2022-11-17T13:11:39.418Z,22.08
2022-11-17T13:14:17.466Z,22.16
2022-11-17T13:16:50.522Z,21.90
2022-11-17T13:19:36.736Z,21.10
2022-11-17T13:22:18.684Z,19.67
2022-11-17T13:24:48.815Z,21.28
2022-11-17T13:27:30.141Z,21.39
2022-11-17T13:30:22.153Z,21.82
2022-11-17T13:32:49.929Z,21.90
2022-11-17T13:35:25.395Z,22.23
2022-11-17T13:38:11.362Z,20.98
2022-11-17T13:40:40.723Z,20.67
2022-11-17T13:43:20.391Z,21.82
2022-11-17T13:45:48.658Z,21.35
2022-11-17T13:48:36.611Z,21.82
2022-11-17T13:51:38.799Z,22.56
2022-11-17T13:54:12.180Z,22.00
2022-11-17T13:56:41.759Z,21.80
2022-11-17T13:59:30.536Z,21.95
2022-11-17T14:02:16.197Z,21.83
2022-11-17T14:05:18.921Z,22.28
2022-11-17T14:07:46.853Z,20.98
2022-11-17T14:10:22.862Z,21.73
2022-11-17T14:12:52.828Z,21.63
2022-11-17T14:15:29.562Z,21.38
2022-11-17T14:18:00.244Z,20.72
2022-11-17T14:20:34.733Z,19.87
2022-11-17T14:23:10.427Z,20.68
2022-11-17T14:25:53.032Z,21.14
2022-11-17T14:28:23.503Z,20.53
2022-11-17T14:30:53.877Z,20.73
2022-11-17T14:33:21.573Z,20.04
2022-11-17T14:35:56.006Z,20.07
2022-11-17T14:38:23.888Z,20.03
2022-11-17T14:40:52.952Z,19.73
2022-11-17T14:43:21.797Z,19.95
2022-11-17T14:45:49.973Z,20.79
2022-11-17T14:48:19.274Z,20.83
2022-11-17T14:50:47.876Z,20.83
2022-11-17T14:53:14.953Z,20.80
2022-11-17T14:55:41.902Z,20.02
2022-11-17T14:58:09.908Z,20.36
2022-11-17T15:00:37.000Z,20.49
2022-11-17T15:03:04.183Z,21.24
2022-11-17T15:05:31.148Z,21.05
2022-11-17T15:07:58.118Z,20.71
2022-11-17T15:10:25.391Z,21.40
2022-11-17T15:12:52.421Z,20.92
2022-11-17T15:15:19.440Z,21.10
2022-11-17T15:17:46.383Z,21.11
2022-11-17T15:20:13.507Z,21.40
2022-11-17T15:22:40.585Z,21.34
2022-11-17T15:25:08.364Z,21.63
2022-11-17T15:27:35.257Z,21.13
2022-11-17T15:30:02.388Z,20.95
2022-11-17T15:32:29.722Z,21.49
2022-11-17T15:34:56.640Z,21.27
2022-11-17T15:37:24.627Z,21.35
2022-11-17T15:39:51.603Z,21.43
2022-11-17T15:42:18.490Z,21.63
2022-11-17T15:44:45.340Z,21.38
2022-11-17T15:47:12.197Z,21.07
2022-11-17T15:49:39.071Z,21.70
2022-11-17T15:52:05.972Z,21.44
2022-11-17T15:54:35.453Z,21.43
2022-11-17T15:57:02.758Z,21.26
2022-11-17T15:59:29.821Z,20.85
2022-11-17T16:01:56.956Z,21.20
2022-11-17T16:04:23.941Z,21.33
2022-11-17T16:06:50.872Z,21.33
2022-11-17T16:09:18.230Z,21.51
2022-11-17T16:11:45.323Z,20.73
2022-11-17T16:14:12.325Z,21.12
2022-11-17T16:16:39.596Z,21.22
2022-11-17T16:19:07.032Z,21.11
2022-11-17T16:21:36.929Z,20.82
2022-11-17T16:24:03.997Z,20.78
2022-11-17T16:26:30.906Z,20.61
2022-11-17T16:29:04.538Z,20.78
2022-11-17T16:31:34.458Z,21.19
2022-11-17T16:34:07.608Z,21.11
2022-11-17T16:36:38.401Z,21.32
2022-11-17T16:39:08.814Z,21.33
2022-11-17T16:41:40.117Z,21.56
2022-11-17T16:44:11.661Z,20.91
2022-11-17T16:46:45.672Z,20.82
2022-11-17T16:49:16.675Z,21.05
2022-11-17T16:51:48.565Z,21.14
2022-11-17T16:54:16.111Z,21.12
2022-11-17T16:56:43.061Z,20.93
2022-11-17T16:59:11.205Z,21.33
2022-11-17T17:01:38.764Z,21.23
2022-11-17T17:04:08.713Z,21.12
2022-11-17T17:06:37.568Z,21.20
2022-11-17T17:09:06.851Z,21.19
2022-11-17T17:11:35.675Z,21.40
2022-11-17T17:14:04.673Z,21.04
2022-11-17T17:16:35.872Z,21.12
2022-11-17T17:19:06.009Z,21.27
2022-11-17T17:21:34.690Z,20.90
2022-11-17T17:24:02.109Z,20.83
2022-11-17T17:26:31.047Z,21.10
2022-11-17T17:29:00.206Z,21.35
2022-11-17T17:31:33.242Z,21.18
2022-11-17T17:34:00.155Z,20.40
2022-11-17T17:36:28.164Z,20.66
2022-11-17T17:38:57.219Z,20.64
2022-11-17T17:41:31.179Z,20.57
2022-11-17T17:44:03.404Z,20.83
2022-11-17T17:46:34.368Z,20.53
2022-11-17T17:49:01.653Z,20.52
2022-11-17T17:51:29.781Z,20.22
2022-11-17T17:54:00.990Z,20.48
2022-11-17T17:56:30.220Z,20.67
2022-11-17T17:58:58.018Z,19.54
2022-11-17T18:01:28.792Z,20.61
2022-11-17T18:04:01.326Z,21.11
2022-11-17T18:06:28.453Z,20.82
2022-11-17T18:08:56.456Z,20.24
2022-11-17T18:11:23.441Z,20.84
2022-11-17T18:13:52.548Z,20.51
2022-11-17T18:16:28.553Z,20.78
2022-11-17T18:19:04.456Z,20.67
2022-11-17T18:21:32.256Z,20.28
2022-11-17T18:24:01.343Z,20.89
2022-11-17T18:26:33.939Z,20.84
2022-11-17T18:29:16.606Z,20.85
2022-11-17T18:31:46.595Z,20.60
2022-11-17T18:34:22.184Z,20.12
2022-11-17T18:36:50.775Z,20.47
2022-11-17T18:39:18.501Z,20.71
2022-11-17T18:41:46.029Z,20.43
2022-11-17T18:44:14.947Z,20.93
2022-11-17T18:46:41.929Z,20.82
2022-11-17T18:49:09.197Z,20.89
2022-11-17T18:51:36.158Z,20.62
2022-11-17T18:54:04.060Z,20.98
2022-11-17T18:56:36.880Z,20.93
2022-11-17T18:59:11.083Z,21.03
2022-11-17T19:01:40.504Z,21.25
2022-11-17T19:04:07.666Z,21.11
2022-11-17T19:06:34.839Z,20.13
2022-11-17T19:09:01.886Z,19.93
2022-11-17T19:11:33.527Z,20.84
2022-11-17T19:14:02.308Z,21.11
2022-11-17T19:16:30.230Z,20.60
2022-11-17T19:18:57.633Z,20.85
2022-11-17T19:21:27.842Z,20.99
2022-11-17T19:24:00.949Z,21.31
2022-11-17T19:26:31.163Z,20.82
2022-11-17T19:29:01.025Z,21.27
2022-11-17T19:31:28.779Z,20.78
2022-11-17T19:33:57.091Z,21.13
2022-11-17T19:36:25.342Z,21.17
2022-11-17T19:38:54.304Z,21.44
2022-11-17T19:41:24.285Z,21.01
2022-11-17T19:44:00.202Z,20.48
2022-11-17T19:46:32.036Z,20.30
2022-11-17T19:48:59.895Z,20.09
2022-11-17T19:51:33.591Z,20.48
2022-11-17T19:54:07.964Z,20.71
2022-11-17T19:56:35.990Z,20.65
2022-11-17T19:59:03.471Z,20.63
2022-11-17T20:01:32.248Z,20.85
2022-11-17T20:04:01.217Z,20.95
2022-11-17T20:06:35.372Z,21.13
2022-11-17T20:09:10.081Z,21.05
2022-11-17T20:11:40.555Z,20.60
2022-11-17T20:14:08.173Z,20.47
2022-11-17T20:16:38.934Z,20.72
2022-11-17T20:19:06.599Z,20.23
2022-11-17T20:21:36.327Z,20.20
2022-11-17T20:24:03.986Z,19.85
2022-11-17T20:26:36.331Z,20.09
2022-11-17T20:29:04.124Z,20.08
2022-11-17T20:31:35.150Z,20.51
2022-11-17T20:34:05.283Z,20.34
2022-11-17T20:36:34.941Z,20.26
2022-11-17T20:39:05.958Z,20.24
2022-11-17T20:41:34.076Z,19.70
2022-11-17T20:44:03.234Z,19.82
2022-11-17T20:46:30.958Z,19.86
2022-11-17T20:48:58.333Z,20.06
2022-11-17T20:51:26.471Z,19.47
2022-11-17T20:53:53.772Z,19.14
2022-11-17T20:56:21.308Z,19.49
2022-11-17T20:58:48.796Z,19.55
2022-11-17T21:01:21.847Z,20.75
2022-11-17T21:03:49.872Z,23.47
2022-11-17T21:06:20.413Z,23.71
2022-11-17T21:08:48.262Z,23.39
2022-11-17T21:11:37.666Z,23.07
2022-11-17T21:14:07.378Z,18.81
2022-11-17T21:16:37.784Z,17.89
2022-11-17T21:19:06.436Z,18.47
2022-11-17T21:21:34.402Z,18.26
2022-11-17T21:24:02.313Z,18.79
2022-11-17T21:26:30.718Z,18.46
2022-11-17T21:29:04.791Z,19.73
2022-11-17T21:31:34.317Z,18.46
2022-11-17T21:34:05.317Z,18.39
2022-11-17T21:36:34.622Z,18.61
2022-11-17T21:39:02.648Z,18.62
2022-11-17T21:41:35.615Z,18.38
2022-11-17T21:44:05.717Z,19.02
2022-11-17T21:46:36.532Z,18.95
2022-11-17T21:49:04.644Z,18.32
2022-11-17T21:51:34.989Z,18.68
2022-11-17T21:54:07.616Z,20.21
2022-11-17T21:56:36.346Z,18.71
2022-11-17T21:59:17.096Z,20.04
2022-11-17T22:01:45.247Z,21.61
2022-11-17T22:04:13.386Z,21.20
2022-11-17T22:06:41.345Z,22.90
2022-11-17T22:09:10.568Z,21.20
2022-11-17T22:11:39.060Z,21.60
2022-11-17T22:14:19.233Z,22.26
2022-11-17T22:16:52.328Z,21.36
2022-11-17T22:19:22.029Z,21.50
2022-11-17T22:21:53.302Z,22.89
2022-11-17T22:24:21.205Z,21.55
2022-11-17T22:26:51.620Z,21.44
2022-11-17T22:29:22.837Z,21.33
2022-11-17T22:36:24.299Z,21.57
2022-11-17T22:38:52.619Z,21.03
2022-11-17T22:41:22.571Z,21.53
2022-11-17T22:43:52.077Z,20.99
2022-11-17T22:46:20.932Z,20.04
2022-11-17T22:49:07.459Z,20.64
2022-11-17T22:55:26.223Z,20.91
2022-11-17T22:57:54.494Z,20.69
2022-11-17T23:00:23.413Z,20.50
2022-11-17T23:02:53.120Z,21.31
2022-11-17T23:05:21.371Z,20.40
2022-11-17T23:07:49.213Z,20.88
2022-11-17T23:10:17.417Z,21.48
2022-11-17T23:12:45.414Z,20.69
2022-11-17T23:15:13.034Z,21.48
2022-11-17T23:17:40.841Z,21.32
2022-11-17T23:20:10.342Z,21.37
2022-11-17T23:22:38.201Z,21.40
2022-11-17T23:25:25.097Z,21.68
2022-11-17T23:27:54.594Z,21.75
2022-11-17T23:30:22.476Z,21.33
2022-11-17T23:32:51.758Z,21.42
2022-11-17T23:35:19.526Z,21.67
2022-11-17T23:37:47.645Z,21.43
2022-11-17T23:40:33.734Z,21.29
2022-11-17T23:43:01.371Z,22.50
2022-11-17T23:45:29.091Z,21.85
2022-11-17T23:47:57.269Z,23.10
2022-11-17T23:50:26.645Z,23.33
2022-11-17T23:52:54.014Z,23.07
2022-11-17T23:55:20.892Z,22.59
2022-11-17T23:57:48.175Z,22.99
